Time;durP1;ratioP1;P1;durP2;ratioP2;P2;SDS_P1;SDS_P2;PMS_P1;PMS_P2;Temp;Humidity;BMP_temperature;BMP_pressure;BME280_temperature;BME280_humidity;BME280_pressure;Samples;Min_cycle;Max_cycle;Signal;HPM_P1;HPM_P2
2023/12/28 00:00:38;;;;;;;48.78;46.17;;;;;;;;;;5027134;28;20111;-51
2023/12/28 00:03:03;;;;;;;48.75;46.25;;;;;;;;;;5025957;28;20041;-49
2023/12/28 00:05:28;;;;;;;47.42;44.97;;;;;;;;;;5031129;28;20032;-49
2023/12/28 00:07:57;;;;;;;45.83;43.53;;;;;;;;;;5027131;28;20060;-58
2023/12/28 00:10:27;;;;;;;46.22;43.80;;;;;;;;;;5028133;28;20061;-52
2023/12/28 00:12:52;;;;;;;48.90;46.30;;;;;;;;;;5027599;28;20467;-52
2023/12/28 00:15:18;;;;;;;48.58;46.08;;;;;;;;;;5025554;28;20048;-48
2023/12/28 00:17:43;;;;;;;51.92;49.13;;;;;;;;;;5029213;28;20033;-50
2023/12/28 00:20:09;;;;;;;49.35;46.85;;;;;;;;;;5026352;28;20034;-57
2023/12/28 00:22:37;;;;;;;46.92;44.53;;;;;;;;;;5027449;28;20549;-59
2023/12/28 00:25:03;;;;;;;52.20;49.53;;;;;;;;;;5024923;28;20048;-58
2023/12/28 00:27:29;;;;;;;49.58;46.97;;;;;;;;;;5023642;28;20029;-57
2023/12/28 00:29:54;;;;;;;47.42;45.03;;;;;;;;;;5029085;28;20045;-58
2023/12/28 00:32:19;;;;;;;44.03;41.63;;;;;;;;;;5030619;28;20459;-57
2023/12/28 00:34:45;;;;;;;41.75;39.60;;;;;;;;;;5034610;28;20056;-57
2023/12/28 00:37:10;;;;;;;41.92;39.75;;;;;;;;;;5031470;28;20037;-58
2023/12/28 00:39:35;;;;;;;40.22;38.08;;;;;;;;;;5030172;28;20056;-58
2023/12/28 00:42:01;;;;;;;38.88;36.75;;;;;;;;;;5030658;28;20137;-52
2023/12/28 00:44:26;;;;;;;37.42;35.42;;;;;;;;;;5032267;28;20578;-54
2023/12/28 00:46:51;;;;;;;36.90;35.00;;;;;;;;;;5033015;28;20061;-52
2023/12/28 00:49:17;;;;;;;35.42;33.42;;;;;;;;;;5033636;28;20041;-57
2023/12/28 00:51:42;;;;;;;32.25;30.52;;;;;;;;;;5031959;28;20063;-57
2023/12/28 00:54:08;;;;;;;34.22;32.45;;;;;;;;;;5032745;28;20190;-57
2023/12/28 00:56:33;;;;;;;32.72;30.55;;;;;;;;;;5029216;28;20041;-59
2023/12/28 00:58:58;;;;;;;31.15;29.45;;;;;;;;;;5029540;28;20026;-49
2023/12/28 01:01:23;;;;;;;30.05;28.45;;;;;;;;;;5031303;28;20100;-50
2023/12/28 01:03:49;;;;;;;28.00;26.50;;;;;;;;;;5032908;28;20021;-50
2023/12/28 01:06:14;;;;;;;25.25;23.90;;;;;;;;;;5031664;28;20077;-51
2023/12/28 01:08:40;;;;;;;24.55;23.25;;;;;;;;;;5030956;28;20052;-51
2023/12/28 01:11:05;;;;;;;25.00;23.63;;;;;;;;;;5033737;28;20114;-52
2023/12/28 01:13:30;;;;;;;24.23;22.83;;;;;;;;;;5031909;28;20087;-48
2023/12/28 01:15:56;;;;;;;26.40;24.83;;;;;;;;;;5026299;28;20097;-50
2023/12/28 01:18:21;;;;;;;24.67;23.38;;;;;;;;;;5026464;28;20099;-51
2023/12/28 01:20:47;;;;;;;25.17;23.77;;;;;;;;;;5033950;28;20050;-48
2023/12/28 01:23:12;;;;;;;25.52;24.15;;;;;;;;;;5032442;28;20080;-52
2023/12/28 01:25:37;;;;;;;24.30;23.00;;;;;;;;;;5029967;28;20112;-49
2023/12/28 01:28:03;;;;;;;25.23;23.83;;;;;;;;;;5029778;28;20045;-50
2023/12/28 01:30:28;;;;;;;24.75;23.35;;;;;;;;;;5032514;28;20029;-50
2023/12/28 01:32:54;;;;;;;25.58;24.13;;;;;;;;;;5027567;28;20025;-48
2023/12/28 01:35:19;;;;;;;26.58;25.17;;;;;;;;;;5034671;28;20091;-49
2023/12/28 01:37:44;;;;;;;26.10;24.38;;;;;;;;;;5030216;28;20032;-47
2023/12/28 01:40:10;;;;;;;27.40;25.90;;;;;;;;;;5036206;28;20043;-55
2023/12/28 01:42:37;;;;;;;26.20;24.70;;;;;;;;;;5030874;28;20049;-55
2023/12/28 01:45:03;;;;;;;27.02;25.40;;;;;;;;;;5031010;28;20037;-46
2023/12/28 01:47:29;;;;;;;28.45;26.95;;;;;;;;;;5032279;28;20037;-52
2023/12/28 01:49:56;;;;;;;28.90;27.33;;;;;;;;;;5026766;28;20121;-50
2023/12/28 01:52:21;;;;;;;27.00;25.52;;;;;;;;;;5030654;28;20472;-51
2023/12/28 01:54:47;;;;;;;26.85;25.35;;;;;;;;;;5029438;28;20047;-48
2023/12/28 01:57:13;;;;;;;27.77;25.95;;;;;;;;;;5029531;28;20494;-49
2023/12/28 01:59:39;;;;;;;28.85;27.30;;;;;;;;;;5030599;28;20021;-48
2023/12/28 02:02:05;;;;;;;26.80;25.35;;;;;;;;;;5031991;28;20087;-49
2023/12/28 02:04:31;;;;;;;27.95;26.38;;;;;;;;;;5034086;28;20033;-48
2023/12/28 02:06:57;;;;;;;27.15;25.65;;;;;;;;;;5031457;28;20064;-51
2023/12/28 02:09:23;;;;;;;26.80;25.35;;;;;;;;;;5027930;28;20041;-51
2023/12/28 02:11:48;;;;;;;27.65;26.20;;;;;;;;;;5030459;28;20087;-57
2023/12/28 02:14:14;;;;;;;27.83;26.25;;;;;;;;;;5028830;28;20037;-51
2023/12/28 02:16:46;;;;;;;27.83;26.25;;;;;;;;;;5030022;28;20040;-49
2023/12/28 02:19:23;;;;;;;25.40;24.05;;;;;;;;;;5030352;28;20072;-52
2023/12/28 02:21:49;;;;;;;25.80;24.40;;;;;;;;;;5027879;28;20047;-53
2023/12/28 02:24:14;;;;;;;25.70;24.30;;;;;;;;;;5028982;28;20042;-51
2023/12/28 02:26:40;;;;;;;26.15;24.75;;;;;;;;;;5034047;28;20033;-55
2023/12/28 02:29:05;;;;;;;26.88;25.35;;;;;;;;;;5039036;28;20020;-52
2023/12/28 02:31:46;;;;;;;25.77;24.38;;;;;;;;;;5033482;28;20127;-50
2023/12/28 02:34:22;;;;;;;26.08;24.67;;;;;;;;;;5031846;28;20041;-53
2023/12/28 02:36:49;;;;;;;27.52;26.02;;;;;;;;;;5027175;28;20118;-51
2023/12/28 02:39:16;;;;;;;25.73;24.23;;;;;;;;;;5033208;28;20036;-50
2023/12/28 02:41:45;;;;;;;25.25;23.88;;;;;;;;;;5030131;28;20048;-53
2023/12/28 02:44:11;;;;;;;25.20;23.90;;;;;;;;;;5027205;28;20028;-51
2023/12/28 02:46:36;;;;;;;24.65;23.35;;;;;;;;;;5029419;28;20036;-52
2023/12/28 02:49:01;;;;;;;24.55;23.25;;;;;;;;;;5030439;28;20052;-52
2023/12/28 02:51:27;;;;;;;25.08;23.67;;;;;;;;;;5032509;28;20177;-53
2023/12/28 02:53:52;;;;;;;26.83;25.30;;;;;;;;;;5025257;28;20045;-52
2023/12/28 02:56:17;;;;;;;24.60;23.30;;;;;;;;;;5033284;28;20105;-52
2023/12/28 02:58:43;;;;;;;25.67;24.27;;;;;;;;;;5028855;28;20037;-49
2023/12/28 03:01:08;;;;;;;24.45;23.15;;;;;;;;;;5031476;28;20911;-48
2023/12/28 03:03:33;;;;;;;24.52;23.23;;;;;;;;;;5030971;28;20051;-50
2023/12/28 03:05:59;;;;;;;25.50;24.10;;;;;;;;;;5028253;28;20039;-47
2023/12/28 03:08:24;;;;;;;28.38;26.88;;;;;;;;;;5028472;28;20043;-58
2023/12/28 03:10:49;;;;;;;26.17;24.67;;;;;;;;;;5030892;28;20076;-58
2023/12/28 03:13:15;;;;;;;25.38;23.98;;;;;;;;;;5028927;28;20039;-57
2023/12/28 03:15:40;;;;;;;25.13;23.73;;;;;;;;;;5029147;28;20034;-58
2023/12/28 03:18:05;;;;;;;27.13;25.58;;;;;;;;;;5028505;28;20037;-57
2023/12/28 03:20:30;;;;;;;24.90;23.33;;;;;;;;;;5022895;28;20174;-50
2023/12/28 03:22:56;;;;;;;25.42;24.02;;;;;;;;;;5030929;28;20126;-48
2023/12/28 03:25:21;;;;;;;27.35;25.77;;;;;;;;;;5029796;28;20217;-51
2023/12/28 03:27:46;;;;;;;25.90;24.50;;;;;;;;;;5029501;28;20732;-58
2023/12/28 03:30:12;;;;;;;25.10;23.70;;;;;;;;;;5029817;28;20044;-58
2023/12/28 03:32:37;;;;;;;27.73;26.13;;;;;;;;;;5031630;28;20033;-49
2023/12/28 03:35:04;;;;;;;25.27;23.90;;;;;;;;;;5030739;28;20037;-49
2023/12/28 03:37:29;;;;;;;28.35;26.73;;;;;;;;;;5032111;28;20533;-49
2023/12/28 03:39:54;;;;;;;24.55;23.23;;;;;;;;;;5029354;28;20029;-48
2023/12/28 03:42:21;;;;;;;26.58;25.17;;;;;;;;;;5029166;28;20045;-52
2023/12/28 03:44:47;;;;;;;27.30;25.67;;;;;;;;;;5029645;28;20029;-52
2023/12/28 03:47:12;;;;;;;23.95;22.65;;;;;;;;;;5031769;28;20380;-58
2023/12/28 03:49:38;;;;;;;24.17;22.77;;;;;;;;;;5030153;28;20457;-58
2023/12/28 03:52:04;;;;;;;24.55;23.20;;;;;;;;;;5034142;28;20073;-58
2023/12/28 03:54:30;;;;;;;24.75;23.35;;;;;;;;;;5032615;28;20061;-50
2023/12/28 03:56:55;;;;;;;25.70;24.30;;;;;;;;;;5026058;28;20033;-51
2023/12/28 03:59:20;;;;;;;23.95;22.65;;;;;;;;;;5032285;28;20049;-52
2023/12/28 04:01:47;;;;;;;25.23;23.83;;;;;;;;;;5028508;28;20022;-49
2023/12/28 04:04:12;;;;;;;26.15;24.75;;;;;;;;;;5027785;28;20040;-57
2023/12/28 04:06:38;;;;;;;24.63;23.33;;;;;;;;;;5027725;28;20052;-57
2023/12/28 04:09:03;;;;;;;24.52;23.23;;;;;;;;;;5027497;28;20041;-51
2023/12/28 04:11:29;;;;;;;24.98;23.58;;;;;;;;;;5027613;28;20038;-52
2023/12/28 04:13:54;;;;;;;26.30;24.90;;;;;;;;;;5028361;28;20032;-51
2023/12/28 04:16:20;;;;;;;25.42;23.83;;;;;;;;;;5027349;28;20375;-50
2023/12/28 04:18:45;;;;;;;27.20;25.70;;;;;;;;;;5030621;28;20042;-53
2023/12/28 04:21:12;;;;;;;26.55;25.15;;;;;;;;;;5027914;28;20036;-53
2023/12/28 04:23:39;;;;;;;25.95;24.55;;;;;;;;;;5028154;28;20044;-49
2023/12/28 04:26:05;;;;;;;25.48;24.13;;;;;;;;;;5027664;28;20127;-50
2023/12/28 04:28:31;;;;;;;25.05;23.75;;;;;;;;;;5032022;28;20116;-51
2023/12/28 04:30:56;;;;;;;26.88;25.38;;;;;;;;;;5032287;28;20040;-51
2023/12/28 04:33:22;;;;;;;26.58;25.08;;;;;;;;;;5031608;28;20087;-52
2023/12/28 04:35:47;;;;;;;26.58;25.17;;;;;;;;;;5029765;28;20167;-51
2023/12/28 04:38:13;;;;;;;26.55;25.05;;;;;;;;;;5030919;28;20052;-58
2023/12/28 04:40:38;;;;;;;26.23;24.73;;;;;;;;;;5027368;28;20311;-59
2023/12/28 04:43:03;;;;;;;25.67;24.27;;;;;;;;;;5034241;28;20040;-58
2023/12/28 04:45:29;;;;;;;26.90;25.35;;;;;;;;;;5026523;28;20094;-58
2023/12/28 04:47:54;;;;;;;25.90;24.50;;;;;;;;;;5031086;28;20037;-59
2023/12/28 04:50:20;;;;;;;27.45;25.90;;;;;;;;;;5024104;28;20022;-59
2023/12/28 04:52:45;;;;;;;29.13;27.52;;;;;;;;;;5022708;28;20048;-59
2023/12/28 04:55:11;;;;;;;27.08;25.58;;;;;;;;;;5024272;28;20372;-59
2023/12/28 04:57:36;;;;;;;29.15;27.65;;;;;;;;;;5023190;28;20446;-58
2023/12/28 05:00:03;;;;;;;26.48;25.08;;;;;;;;;;5027865;28;20078;-59
2023/12/28 05:02:28;;;;;;;27.63;26.13;;;;;;;;;;5029339;28;20048;-54
2023/12/28 05:04:53;;;;;;;28.95;27.42;;;;;;;;;;5026583;28;20042;-53
2023/12/28 05:07:19;;;;;;;26.38;24.98;;;;;;;;;;5025270;28;20036;-49
2023/12/28 05:09:44;;;;;;;26.58;25.15;;;;;;;;;;5026225;28;20083;-49
2023/12/28 05:12:09;;;;;;;28.17;26.67;;;;;;;;;;5027693;28;20046;-57
2023/12/28 05:14:35;;;;;;;26.88;25.48;;;;;;;;;;5026792;28;20037;-59
2023/12/28 05:17:00;;;;;;;28.40;26.60;;;;;;;;;;5027442;28;20056;-59
2023/12/28 05:19:25;;;;;;;28.08;26.58;;;;;;;;;;5026078;28;20124;-59
2023/12/28 05:21:51;;;;;;;27.83;26.35;;;;;;;;;;5033935;28;20120;-58
2023/12/28 05:24:16;;;;;;;31.95;30.25;;;;;;;;;;5030182;28;20037;-50
2023/12/28 05:26:41;;;;;;;29.42;27.92;;;;;;;;;;5028870;28;20442;-53
2023/12/28 05:29:06;;;;;;;30.55;28.92;;;;;;;;;;5034506;28;20044;-52
2023/12/28 05:31:32;;;;;;;28.65;27.13;;;;;;;;;;5030037;28;20033;-50
2023/12/28 05:33:58;;;;;;;29.50;27.98;;;;;;;;;;5027975;28;20451;-53
2023/12/28 05:36:24;;;;;;;30.88;29.17;;;;;;;;;;5023491;28;20037;-53
2023/12/28 05:38:49;;;;;;;31.00;29.35;;;;;;;;;;5009426;28;20033;-53
2023/12/28 05:41:14;;;;;;;29.88;28.27;;;;;;;;;;5031700;28;20026;-53
2023/12/28 05:43:40;;;;;;;32.53;30.73;;;;;;;;;;5029676;28;20036;-52
2023/12/28 05:46:05;;;;;;;31.98;30.27;;;;;;;;;;5029345;28;20029;-53
2023/12/28 05:48:30;;;;;;;29.55;28.02;;;;;;;;;;5024399;28;20045;-54
2023/12/28 05:50:59;;;;;;;30.42;28.83;;;;;;;;;;5029240;28;20034;-54
2023/12/28 05:53:25;;;;;;;31.67;30.02;;;;;;;;;;5024001;28;20033;-52
2023/12/28 05:55:50;;;;;;;31.60;29.90;;;;;;;;;;5028244;28;20535;-53
2023/12/28 05:58:15;;;;;;;33.28;31.52;;;;;;;;;;5026428;28;20037;-51
2023/12/28 06:00:41;;;;;;;33.95;32.15;;;;;;;;;;5025342;28;20451;-55
2023/12/28 06:03:06;;;;;;;34.00;32.22;;;;;;;;;;5024170;28;20112;-50
2023/12/28 06:05:32;;;;;;;35.15;32.95;;;;;;;;;;5027761;28;20042;-53
2023/12/28 06:07:57;;;;;;;35.00;33.17;;;;;;;;;;5029430;28;20132;-53
2023/12/28 06:10:24;;;;;;;33.55;31.75;;;;;;;;;;5026588;28;20045;-53
2023/12/28 06:12:49;;;;;;;31.35;29.67;;;;;;;;;;5031632;28;20040;-53
2023/12/28 06:15:14;;;;;;;36.13;34.25;;;;;;;;;;5028691;28;20033;-52
2023/12/28 06:17:40;;;;;;;32.58;30.88;;;;;;;;;;5030776;28;20111;-51
2023/12/28 06:20:06;;;;;;;35.22;33.40;;;;;;;;;;5029764;28;20051;-51
2023/12/28 06:22:31;;;;;;;33.50;31.65;;;;;;;;;;5029778;28;20702;-53
2023/12/28 06:24:57;;;;;;;35.78;33.95;;;;;;;;;;5029701;28;20045;-53
2023/12/28 06:27:23;;;;;;;34.42;32.63;;;;;;;;;;5024890;28;20045;-55
2023/12/28 06:29:49;;;;;;;35.40;33.60;;;;;;;;;;5028556;28;20057;-52
2023/12/28 06:32:14;;;;;;;36.03;34.17;;;;;;;;;;5022852;28;20426;-53
2023/12/28 06:34:39;;;;;;;35.70;33.88;;;;;;;;;;5028401;28;20112;-52
2023/12/28 06:37:05;;;;;;;39.38;37.38;;;;;;;;;;5028666;28;20121;-51
2023/12/28 06:39:30;;;;;;;37.63;35.70;;;;;;;;;;5027037;28;20048;-51
2023/12/28 06:41:55;;;;;;;39.08;37.08;;;;;;;;;;5027547;28;20292;-52
2023/12/28 06:44:21;;;;;;;37.58;35.65;;;;;;;;;;5026239;28;20145;-52
2023/12/28 06:46:46;;;;;;;42.03;39.85;;;;;;;;;;5029784;28;20120;-54
2023/12/28 06:49:11;;;;;;;37.60;35.67;;;;;;;;;;5032996;28;20149;-54
2023/12/28 06:51:37;;;;;;;35.70;33.78;;;;;;;;;;5028081;28;20332;-53
2023/12/28 06:54:02;;;;;;;39.97;37.90;;;;;;;;;;5028179;28;20067;-54
2023/12/28 06:56:28;;;;;;;37.13;35.10;;;;;;;;;;5025875;28;20041;-52
2023/12/28 06:58:53;;;;;;;40.05;37.97;;;;;;;;;;5029804;28;20466;-53
2023/12/28 07:01:19;;;;;;;37.08;35.17;;;;;;;;;;5026270;28;20076;-54
2023/12/28 07:03:44;;;;;;;37.55;35.55;;;;;;;;;;5028665;28;20052;-50
2023/12/28 07:06:10;;;;;;;41.35;39.25;;;;;;;;;;5028840;28;20057;-52
2023/12/28 07:08:36;;;;;;;39.35;37.30;;;;;;;;;;5031145;28;20059;-54
2023/12/28 07:11:01;;;;;;;39.55;37.50;;;;;;;;;;5026889;28;20076;-52
2023/12/28 07:13:27;;;;;;;40.78;38.70;;;;;;;;;;5027989;28;20476;-54
2023/12/28 07:15:53;;;;;;;38.88;36.88;;;;;;;;;;5030642;28;20045;-53
2023/12/28 07:18:18;;;;;;;41.22;39.15;;;;;;;;;;5024808;28;20370;-54
2023/12/28 07:20:43;;;;;;;41.13;39.00;;;;;;;;;;5031522;28;20032;-53
2023/12/28 07:23:09;;;;;;;39.33;37.33;;;;;;;;;;5024566;28;20037;-53
2023/12/28 07:25:34;;;;;;;40.85;38.75;;;;;;;;;;5027719;28;20513;-54
2023/12/28 07:28:00;;;;;;;41.45;39.25;;;;;;;;;;5025379;28;20036;-54
2023/12/28 07:30:25;;;;;;;41.08;38.97;;;;;;;;;;5025899;28;20043;-54
2023/12/28 07:32:51;;;;;;;37.42;35.53;;;;;;;;;;5022962;28;20044;-56
2023/12/28 07:35:17;;;;;;;42.30;39.97;;;;;;;;;;5028808;28;20124;-54
2023/12/28 07:37:44;;;;;;;38.58;36.58;;;;;;;;;;5022333;28;20028;-51
2023/12/28 07:40:11;;;;;;;37.33;35.42;;;;;;;;;;5018249;28;20029;-54
2023/12/28 07:42:36;;;;;;;40.38;38.25;;;;;;;;;;5023596;28;20034;-53
2023/12/28 07:45:02;;;;;;;38.83;36.80;;;;;;;;;;5023978;28;20410;-54
2023/12/28 07:47:27;;;;;;;38.17;36.15;;;;;;;;;;5024974;28;20037;-52
2023/12/28 07:49:52;;;;;;;37.85;35.90;;;;;;;;;;5033036;28;20453;-54
2023/12/28 07:52:18;;;;;;;40.92;38.83;;;;;;;;;;5025569;28;20095;-54
2023/12/28 07:54:43;;;;;;;39.28;37.25;;;;;;;;;;5019412;28;20056;-55
2023/12/28 07:57:08;;;;;;;39.33;37.30;;;;;;;;;;5019598;28;20698;-55
2023/12/28 07:59:34;;;;;;;38.40;36.40;;;;;;;;;;5020462;28;20043;-52
2023/12/28 08:01:59;;;;;;;40.78;38.67;;;;;;;;;;5023634;28;20256;-51
2023/12/28 08:04:24;;;;;;;35.90;33.97;;;;;;;;;;5028103;28;20052;-51
2023/12/28 08:06:50;;;;;;;37.63;35.70;;;;;;;;;;5019134;28;20071;-51
2023/12/28 08:09:15;;;;;;;38.13;36.15;;;;;;;;;;5024170;28;20056;-51
2023/12/28 08:11:40;;;;;;;41.63;39.15;;;;;;;;;;5026410;28;20033;-49
2023/12/28 08:14:06;;;;;;;38.75;36.75;;;;;;;;;;5028355;28;20053;-51
2023/12/28 08:16:31;;;;;;;38.95;36.97;;;;;;;;;;5022111;28;20030;-50
2023/12/28 08:18:56;;;;;;;36.72;34.85;;;;;;;;;;5027335;28;20025;-49
2023/12/28 08:21:22;;;;;;;40.67;38.58;;;;;;;;;;5025916;28;20032;-53
2023/12/28 08:23:47;;;;;;;38.60;36.55;;;;;;;;;;5022086;28;20091;-53
2023/12/28 08:26:12;;;;;;;37.63;35.70;;;;;;;;;;5023814;28;20048;-55
2023/12/28 08:28:38;;;;;;;40.65;38.60;;;;;;;;;;5024501;28;20096;-52
2023/12/28 08:31:04;;;;;;;41.22;39.05;;;;;;;;;;5026924;28;20111;-55
2023/12/28 08:33:29;;;;;;;39.08;37.08;;;;;;;;;;5032575;28;20069;-51
2023/12/28 08:35:55;;;;;;;40.13;38.03;;;;;;;;;;5028002;28;20112;-52
2023/12/28 08:38:20;;;;;;;39.63;37.53;;;;;;;;;;5030494;28;20025;-51
2023/12/28 08:40:45;;;;;;;39.63;37.42;;;;;;;;;;5029860;28;20112;-55
2023/12/28 08:43:11;;;;;;;38.25;36.28;;;;;;;;;;5022896;28;20037;-50
2023/12/28 08:45:36;;;;;;;40.80;38.63;;;;;;;;;;5024731;28;20034;-54
2023/12/28 08:48:03;;;;;;;39.45;37.45;;;;;;;;;;5025616;28;20041;-53
2023/12/28 08:50:28;;;;;;;41.50;39.38;;;;;;;;;;5024581;28;20033;-52
2023/12/28 08:52:53;;;;;;;43.00;40.80;;;;;;;;;;5025344;28;20056;-53
2023/12/28 08:55:18;;;;;;;41.97;39.83;;;;;;;;;;5031959;28;20505;-54
2023/12/28 08:57:44;;;;;;;42.65;40.45;;;;;;;;;;5029744;28;20049;-52
2023/12/28 09:00:10;;;;;;;42.10;39.92;;;;;;;;;;5030445;28;20521;-53
2023/12/28 09:02:36;;;;;;;41.10;38.97;;;;;;;;;;5025584;28;20418;-52
2023/12/28 09:05:01;;;;;;;42.40;40.20;;;;;;;;;;5029580;28;20132;-53
2023/12/28 09:07:26;;;;;;;43.20;41.03;;;;;;;;;;5028496;28;20390;-53
2023/12/28 09:09:52;;;;;;;42.88;40.63;;;;;;;;;;5031583;28;20037;-53
2023/12/28 09:12:17;;;;;;;44.20;41.90;;;;;;;;;;5032704;28;19931;-54
2023/12/28 09:14:43;;;;;;;44.65;42.38;;;;;;;;;;5033016;28;20064;-53
2023/12/28 09:17:08;;;;;;;42.92;40.72;;;;;;;;;;5030958;28;20123;-53
2023/12/28 09:19:33;;;;;;;46.35;43.80;;;;;;;;;;5029376;28;20057;-55
2023/12/28 09:21:59;;;;;;;42.33;40.15;;;;;;;;;;5031823;28;20045;-52
2023/12/28 09:24:24;;;;;;;44.92;42.63;;;;;;;;;;5028837;28;20044;-53
2023/12/28 09:26:49;;;;;;;41.63;39.40;;;;;;;;;;5035557;28;20037;-53
2023/12/28 09:29:15;;;;;;;40.35;38.28;;;;;;;;;;5031698;28;20057;-55
2023/12/28 09:31:40;;;;;;;39.35;37.30;;;;;;;;;;5029051;28;20112;-53
2023/12/28 09:34:05;;;;;;;41.45;39.28;;;;;;;;;;5030984;28;20029;-53
2023/12/28 09:36:31;;;;;;;40.03;37.95;;;;;;;;;;5039468;28;20030;-55
2023/12/28 09:38:56;;;;;;;40.33;38.22;;;;;;;;;;5029322;28;20574;-54
2023/12/28 09:41:26;;;;;;;40.25;38.15;;;;;;;;;;5035084;28;20060;-53
2023/12/28 09:44:15;;;;;;;38.22;36.10;;;;;;;;;;5026274;28;20059;-50
2023/12/28 09:46:44;;;;;;;37.90;35.95;;;;;;;;;;5023165;28;20041;-54
2023/12/28 09:49:11;;;;;;;38.28;36.28;;;;;;;;;;5031286;28;20045;-54
2023/12/28 09:51:36;;;;;;;34.95;33.15;;;;;;;;;;5030194;28;20053;-54
2023/12/28 09:54:03;;;;;;;32.53;30.83;;;;;;;;;;5029253;28;20057;-53
2023/12/28 09:56:30;;;;;;;32.05;30.30;;;;;;;;;;5027204;28;20588;-55
2023/12/28 09:58:57;;;;;;;30.60;28.95;;;;;;;;;;5029153;28;20037;-52
2023/12/28 10:01:22;;;;;;;29.38;27.77;;;;;;;;;;5027152;28;20041;-54
2023/12/28 10:03:48;;;;;;;29.60;28.02;;;;;;;;;;5030484;28;20033;-51
2023/12/28 10:06:15;;;;;;;27.17;25.77;;;;;;;;;;5029338;28;20029;-54
2023/12/28 10:08:48;;;;;;;26.98;25.58;;;;;;;;;;5028423;28;20025;-53
2023/12/28 10:11:16;;;;;;;26.45;25.05;;;;;;;;;;5027961;28;20033;-54
2023/12/28 10:13:42;;;;;;;27.33;25.92;;;;;;;;;;5026703;28;20047;-54
2023/12/28 10:16:10;;;;;;;25.73;24.33;;;;;;;;;;5033114;28;20041;-52
2023/12/28 10:18:35;;;;;;;25.30;24.00;;;;;;;;;;5038112;28;20029;-53
2023/12/28 10:21:01;;;;;;;25.83;24.42;;;;;;;;;;5030173;28;20025;-51
2023/12/28 10:23:26;;;;;;;25.98;24.58;;;;;;;;;;5029167;28;20375;-54
2023/12/28 10:25:56;;;;;;;27.27;25.75;;;;;;;;;;5030210;28;20037;-52
2023/12/28 10:28:21;;;;;;;27.52;26.02;;;;;;;;;;5013334;28;20052;-52
2023/12/28 10:30:55;;;;;;;27.73;26.13;;;;;;;;;;5034164;28;20029;-54
2023/12/28 10:33:20;;;;;;;24.33;23.02;;;;;;;;;;5024842;28;20050;-52
2023/12/28 10:35:45;;;;;;;22.40;21.20;;;;;;;;;;5023275;28;20289;-55
2023/12/28 10:38:15;;;;;;;24.35;23.05;;;;;;;;;;5025871;28;20873;-51
2023/12/28 10:40:41;;;;;;;24.25;22.90;;;;;;;;;;5028972;28;20025;-51
2023/12/28 10:43:10;;;;;;;23.52;22.23;;;;;;;;;;5029124;28;20108;-53
2023/12/28 10:45:39;;;;;;;23.40;22.02;;;;;;;;;;5026679;28;20048;-60
2023/12/28 10:48:08;;;;;;;22.70;21.50;;;;;;;;;;5028397;28;20102;-60
2023/12/28 10:50:40;;;;;;;23.17;21.95;;;;;;;;;;5033799;28;20055;-59
2023/12/28 10:53:37;;;;;;;25.73;24.33;;;;;;;;;;5030675;28;20033;-58
2023/12/28 10:56:13;;;;;;;23.60;22.30;;;;;;;;;;5024603;28;20041;-52
2023/12/28 10:58:50;;;;;;;23.55;22.27;;;;;;;;;;5034444;28;20053;-53
2023/12/28 11:01:27;;;;;;;24.30;23.00;;;;;;;;;;5032348;28;20065;-59
2023/12/28 11:04:03;;;;;;;24.10;22.80;;;;;;;;;;5027681;28;20052;-59
2023/12/28 11:06:30;;;;;;;22.83;21.52;;;;;;;;;;5028447;28;20147;-59
2023/12/28 11:08:57;;;;;;;23.08;21.77;;;;;;;;;;5023420;28;20040;-59
2023/12/28 11:11:23;;;;;;;23.98;22.67;;;;;;;;;;5025816;28;20047;-59
2023/12/28 11:13:51;;;;;;;24.40;22.90;;;;;;;;;;5028929;28;20014;-53
2023/12/28 11:16:17;;;;;;;24.33;23.02;;;;;;;;;;5025204;28;20033;-50
2023/12/28 11:18:43;;;;;;;26.17;24.77;;;;;;;;;;5023646;28;20033;-53
2023/12/28 11:21:09;;;;;;;24.80;23.42;;;;;;;;;;5029699;28;20458;-53
2023/12/28 11:23:35;;;;;;;22.02;20.83;;;;;;;;;;5030712;28;20040;-55
2023/12/28 11:26:00;;;;;;;24.23;22.83;;;;;;;;;;5029933;28;20506;-52
2023/12/28 11:28:26;;;;;;;24.55;23.25;;;;;;;;;;5025339;28;20303;-52
2023/12/28 11:30:52;;;;;;;24.73;23.42;;;;;;;;;;5032336;28;20041;-53
2023/12/28 11:33:17;;;;;;;24.17;22.73;;;;;;;;;;5030172;28;20033;-53
2023/12/28 11:35:43;;;;;;;22.50;21.30;;;;;;;;;;5030765;28;20024;-53
2023/12/28 11:38:10;;;;;;;23.60;22.25;;;;;;;;;;5025647;28;20056;-52
2023/12/28 11:40:49;;;;;;;24.73;23.40;;;;;;;;;;5034010;28;20043;-53
2023/12/28 11:43:19;;;;;;;25.38;24.00;;;;;;;;;;5028906;28;20029;-53
2023/12/28 11:45:50;;;;;;;23.50;22.20;;;;;;;;;;5031987;28;20059;-53
2023/12/28 11:48:26;;;;;;;25.05;23.65;;;;;;;;;;5029561;28;20459;-53
2023/12/28 11:50:57;;;;;;;25.00;23.50;;;;;;;;;;5026082;28;20089;-55
2023/12/28 11:53:23;;;;;;;25.02;23.70;;;;;;;;;;5024897;28;20033;-52
2023/12/28 11:55:49;;;;;;;25.85;24.35;;;;;;;;;;5026568;28;20044;-52
2023/12/28 11:58:17;;;;;;;25.90;24.50;;;;;;;;;;5030702;28;20386;-52
2023/12/28 12:00:43;;;;;;;25.50;24.20;;;;;;;;;;5027690;28;20050;-52
2023/12/28 12:03:10;;;;;;;25.02;23.73;;;;;;;;;;5031619;28;20045;-59
2023/12/28 12:05:36;;;;;;;25.38;24.02;;;;;;;;;;5027064;28;20049;-58
2023/12/28 12:08:01;;;;;;;24.77;23.48;;;;;;;;;;5026409;28;20029;-59
2023/12/28 12:10:26;;;;;;;25.23;23.92;;;;;;;;;;5026015;28;20030;-59
2023/12/28 12:12:53;;;;;;;24.88;23.55;;;;;;;;;;5026958;28;20398;-59
2023/12/28 12:15:18;;;;;;;23.95;22.65;;;;;;;;;;5028430;28;20090;-59
2023/12/28 12:17:44;;;;;;;26.90;25.40;;;;;;;;;;5030114;28;20025;-59
2023/12/28 12:20:09;;;;;;;25.67;24.33;;;;;;;;;;5031890;28;20361;-59
2023/12/28 12:22:35;;;;;;;24.35;23.05;;;;;;;;;;5025386;28;20199;-59
2023/12/28 12:25:03;;;;;;;25.58;24.20;;;;;;;;;;5027591;28;20132;-59
2023/12/28 12:27:29;;;;;;;24.38;22.98;;;;;;;;;;5032298;28;20060;-59
2023/12/28 12:29:54;;;;;;;24.10;22.77;;;;;;;;;;5031332;28;20934;-59
2023/12/28 12:32:21;;;;;;;23.13;21.90;;;;;;;;;;5028561;28;20033;-59
2023/12/28 12:34:47;;;;;;;23.70;22.40;;;;;;;;;;5032080;28;20390;-59
2023/12/28 12:37:12;;;;;;;24.17;22.88;;;;;;;;;;5034415;28;20036;-59
2023/12/28 12:39:38;;;;;;;23.85;22.52;;;;;;;;;;5038942;28;20108;-59
2023/12/28 12:42:03;;;;;;;23.77;22.48;;;;;;;;;;5034314;28;20034;-59
2023/12/28 12:44:29;;;;;;;23.95;22.65;;;;;;;;;;5033105;28;20033;-59
2023/12/28 12:46:58;;;;;;;23.88;22.58;;;;;;;;;;5031769;28;20415;-59
2023/12/28 12:49:24;;;;;;;25.83;24.42;;;;;;;;;;5038542;28;20045;-59
2023/12/28 12:51:51;;;;;;;22.55;21.35;;;;;;;;;;5031407;28;20098;-59
2023/12/28 12:54:18;;;;;;;22.70;21.50;;;;;;;;;;5031420;28;20076;-59
2023/12/28 12:56:45;;;;;;;24.45;23.15;;;;;;;;;;5034375;28;20403;-59
2023/12/28 12:59:15;;;;;;;23.63;22.38;;;;;;;;;;5032394;28;20037;-59
2023/12/28 13:01:41;;;;;;;24.42;23.13;;;;;;;;;;5029849;28;20061;-59
2023/12/28 13:04:06;;;;;;;23.00;21.73;;;;;;;;;;5030304;28;20501;-59
2023/12/28 13:06:32;;;;;;;23.27;22.08;;;;;;;;;;5034620;28;20119;-59
2023/12/28 13:08:57;;;;;;;23.25;21.98;;;;;;;;;;5026368;28;20022;-59
2023/12/28 13:11:26;;;;;;;24.08;22.77;;;;;;;;;;5034938;28;20045;-59
2023/12/28 13:13:52;;;;;;;22.45;21.25;;;;;;;;;;5034250;28;20036;-59
2023/12/28 13:16:17;;;;;;;24.45;23.15;;;;;;;;;;5032166;28;20466;-59
2023/12/28 13:18:42;;;;;;;24.83;23.40;;;;;;;;;;5036293;28;20056;-59
2023/12/28 13:21:08;;;;;;;24.05;22.75;;;;;;;;;;5031748;28;20580;-59
2023/12/28 13:23:33;;;;;;;23.67;22.42;;;;;;;;;;5031434;28;20029;-59
2023/12/28 13:25:58;;;;;;;25.92;24.52;;;;;;;;;;5028601;28;20087;-59
2023/12/28 13:28:23;;;;;;;24.42;23.13;;;;;;;;;;5034867;28;20039;-59
2023/12/28 13:30:50;;;;;;;25.30;23.98;;;;;;;;;;5028908;28;20047;-59
2023/12/28 13:33:16;;;;;;;23.83;22.52;;;;;;;;;;5032573;28;20594;-59
2023/12/28 13:35:42;;;;;;;24.15;22.85;;;;;;;;;;5030893;28;20045;-59
2023/12/28 13:38:07;;;;;;;26.23;24.83;;;;;;;;;;5029316;28;20069;-59
2023/12/28 13:40:32;;;;;;;23.73;22.33;;;;;;;;;;5028520;28;20030;-59
2023/12/28 13:42:58;;;;;;;26.63;25.23;;;;;;;;;;5035260;28;20044;-59
2023/12/28 13:45:24;;;;;;;26.92;25.52;;;;;;;;;;5033431;28;20095;-59
2023/12/28 13:47:49;;;;;;;25.17;23.88;;;;;;;;;;5036679;28;20037;-59
2023/12/28 13:50:15;;;;;;;23.67;22.40;;;;;;;;;;5033895;28;20056;-59
2023/12/28 13:52:40;;;;;;;25.77;24.38;;;;;;;;;;5029671;28;20464;-59
2023/12/28 13:55:06;;;;;;;24.98;23.67;;;;;;;;;;5028708;28;20044;-59
2023/12/28 13:57:31;;;;;;;26.80;25.40;;;;;;;;;;5029050;28;20412;-59
2023/12/28 14:00:00;;;;;;;25.83;24.42;;;;;;;;;;5030978;28;20708;-59
2023/12/28 14:02:26;;;;;;;26.15;24.75;;;;;;;;;;5028621;28;20052;-59
2023/12/28 14:04:51;;;;;;;26.85;25.45;;;;;;;;;;5031225;28;20065;-59
2023/12/28 14:07:17;;;;;;;27.08;25.67;;;;;;;;;;5026103;28;20507;-59
2023/12/28 14:09:42;;;;;;;25.85;24.48;;;;;;;;;;5031606;28;20117;-58